Latest Coastal Weather Observations for Onslow Airport

IDW60701

Issued at 10:55 am WST Friday 28 November 2014 (issued every 10 minutes, with the page automatically refreshed every 10 minutes)

About coastal observations | Map of coastal stations | Coastal observations for WA | Marine services | Other Formats
Station Details ID: 005017 Name: ONSLOW AIRPORT Lat: -21.67 Lon: 115.11 Height: 10.5 m
Data from the previous 72 hours. | See also: Recent months at Onslow Airport
Date/Time
WST
Temp

°C
Wind Pressure Rain
since 9am
mm
Weather Cloud Vis
km
Sea
Height
m
Swell
Dir
 
Speed
knots
Gust
knots
hPa Trend Height
m
Period
s
Dir
28/10:30am 30.0 SW 12 17 1012.1 - 0.0 - - - - - - -
28/10:00am 29.1 SSW 11 16 1012.4 - 0.0 - - - - - - -
28/09:30am 27.7 SSW 11 16 1012.7 - 0.0 - - - - - - -
28/09:00am 26.7 SSW 13 16 1012.9 - 0.0 - - - - - - -
28/08:30am 25.9 SSW 13 18 1013.1 - 0.0 - - - - - - -
28/08:00am 25.7 S 14 18 1013.3 - 0.0 - - - - - - -
28/07:30am 24.3 S 15 17 1013.2 - 0.0 - - - - - - -
28/07:00am 23.5 S 13 17 1013.2 - 0.0 - - - - - - -
28/06:30am 22.3 S 11 15 1012.9 - 0.0 - - - - - - -
28/06:00am 21.6 S 9 11 1012.6 - 0.0 - - - - - - -
28/05:30am 21.4 SSW 9 11 1012.2 - 0.0 - - - - - - -
28/05:00am 21.4 S 10 13 1011.9 - 0.0 - - - - - - -
28/04:30am 21.8 SSW 11 15 1011.7 - 0.0 - - - - - - -
28/04:00am 21.8 S 9 12 1011.5 - 0.0 - - - - - - -
28/03:30am 22.1 S 11 15 1011.3 - 0.0 - - - - - - -
28/03:00am 22.1 S 11 14 1011.4 - 0.0 - - - - - - -
28/02:30am 22.5 SSW 11 14 1011.3 - 0.0 - - - - - - -
28/02:00am 22.7 SSW 11 15 1011.1 - 0.0 - - - - - - -
28/01:30am 23.0 SSW 12 16 1011.1 - 0.0 - - - - - - -
28/01:00am 23.3 SW 13 17 1011.3 - 0.0 - - - - - - -
28/12:30am 23.4 SW 13 17 1011.3 - 0.0 - - - - - - -
28/12:00am 23.3 WSW 11 14 1011.5 - 0.0 - - - - - - -
 
Date/Time
WST
Temp

°C
Wind Pressure Rain
since 9am
mm
Weather Cloud Vis
km
Sea
Height
m
Swell
Dir
 
Speed
knots
Gust
knots
hPa Trend Height
m
Period
s
Dir
27/11:30pm 23.3 WSW 12 16 1011.9 - 0.0 - - - - - - -
27/11:00pm 23.5 WSW 12 16 1012.0 - 0.0 - - - - - - -
27/10:30pm 23.7 WSW 11 14 1012.0 - 0.0 - - - - - - -
27/10:00pm 23.8 WSW 11 15 1011.9 - 0.0 - - - - - - -
27/09:30pm 24.0 W 12 15 1011.7 - 0.0 - - - - - - -
27/09:00pm 24.2 W 13 16 1011.7 - 0.0 - - - - - - -
27/08:30pm 24.3 W 13 17 1011.7 - 0.0 - - - - - - -
27/08:00pm 24.5 WSW 13 17 1011.5 - 0.0 - - - - - - -
27/07:30pm 24.8 W 13 17 1011.1 - 0.0 - - - - - - -
27/07:00pm 25.1 W 12 17 1011.0 - 0.0 - - - - - - -
27/06:30pm 25.9 W 15 19 1010.6 - 0.0 - - - - - - -
27/06:00pm 27.2 W 14 19 1010.2 - 0.0 - - - - - - -
27/05:30pm 27.1 W 16 20 1009.9 - 0.0 - - - - - - -
27/05:00pm 26.5 W 20 24 1009.8 - 0.0 - - - - - - -
27/04:30pm 27.1 W 20 25 1009.6 - 0.0 - - - - - - -
27/04:00pm 27.6 W 18 23 1009.6 - 0.0 - - - - - - -
27/03:30pm 27.9 W 19 23 1009.6 - 0.0 - - - - - - -
27/03:00pm 27.8 W 18 22 1009.7 - 0.0 - - - - - - -
27/02:30pm 29.3 WNW 16 20 1009.9 - 0.0 - - - - - - -
27/02:00pm 28.6 WNW 17 20 1009.9 - 0.0 - - - - - - -
27/01:30pm 28.8 WNW 15 19 1010.1 - 0.0 - - - - - - -
27/01:00pm 29.6 WNW 13 16 1010.3 - 0.0 - - - - - - -
27/12:30pm 29.4 WNW 12 15 1010.3 - 0.0 - - - - - - -
27/12:00pm 29.8 WNW 13 16 1010.4 - 0.0 - - - - - - -
27/11:30am 29.4 WNW 12 17 1010.6 - 0.0 - - - - - - -
27/11:00am 30.1 NW 10 14 1010.8 - 0.0 - - - - - - -
27/10:30am 29.9 NW 10 13 1010.9 - 0.0 - - - - - - -
27/10:00am 28.8 NW 10 12 1011.1 - 0.0 - - - - - - -
27/09:30am 28.8 W 6 10 1010.8 - 0.0 - - - - - - -
27/09:00am 29.5 E 4 7 1011.0 - 0.0 - - - - - - -
27/08:30am 27.9 S 5 7 1011.2 - 0.0 - - - - - - -
27/08:00am 26.2 SSW 5 7 1011.2 - 0.0 - - - - - - -
27/07:30am 25.3 SW 6 9 1010.9 - 0.0 - - - - - - -
27/07:00am 23.8 SW 7 9 1010.9 - 0.0 - - - - - - -
27/06:30am 22.8 WSW 6 8 1010.7 - 0.0 - - - - - - -
27/06:00am 21.4 W 4 6 1010.5 - 0.0 - - - - - - -
27/05:30am 21.7 WSW 6 7 1010.4 - 0.0 - - - - - - -
27/05:00am 22.3 SW 7 9 1010.3 - 0.0 - - - - - - -
27/04:30am 22.7 SSW 9 10 1010.2 - 0.0 - - - - - - -
27/04:00am 22.8 SSW 9 11 1010.1 - 0.0 - - - - - - -
27/03:30am 22.9 S 11 13 1009.9 - 0.0 - - - - - - -
27/03:00am 23.1 SSW 11 14 1009.9 - 0.0 - - - - - - -
27/02:30am 23.2 SSW 13 16 1010.0 - 0.0 - - - - - - -
27/02:00am 23.3 SSW 11 15 1010.0 - 0.0 - - - - - - -
27/01:30am 23.6 SSW 13 18 1010.0 - 0.0 - - - - - - -
27/01:00am 24.0 SSW 14 18 1010.1 - 0.0 - - - - - - -
27/12:30am 24.2 SSW 11 15 1010.4 - 0.0 - - - - - - -
27/12:00am 24.1 SW 9 13 1010.4 - 0.0 - - - - - - -
 
Date/Time
WST
Temp

°C
Wind Pressure Rain
since 9am
mm
Weather Cloud Vis
km
Sea
Height
m
Swell
Dir
 
Speed
knots
Gust
knots
hPa Trend Height
m
Period
s
Dir
26/11:30pm 23.6 WSW 9 11 1010.4 - 0.0 - - - - - - -
26/11:00pm 23.7 WSW 8 11 1010.3 - 0.0 - - - - - - -
26/10:30pm 23.9 WSW 9 11 1010.2 - 0.0 - - - - - - -
26/10:00pm 24.0 WSW 8 11 1010.1 - 0.0 - - - - - - -
26/09:30pm 24.0 W 9 12 1009.7 - 0.0 - - - - - - -
26/09:00pm 24.1 W 9 12 1009.6 - 0.0 - - - - - - -
26/08:30pm 24.2 WSW 11 15 1009.5 - 0.0 - - - - - - -
26/08:00pm 24.5 W 13 17 1009.3 - 0.0 - - - - - - -
26/07:30pm 24.6 W 13 16 1009.0 - 0.0 - - - - - - -
26/07:00pm 24.8 W 15 18 1008.6 - 0.0 - - - - - - -
26/06:30pm 25.3 W 13 17 1008.4 - 0.0 - - - - - - -
26/06:00pm 26.2 W 13 17 1008.1 - 0.0 - - - - - - -
26/05:30pm 26.6 W 16 19 1007.9 - 0.0 - - - - - - -
26/05:00pm 27.2 W 14 20 1007.8 - 0.0 - - - - - - -
26/04:30pm 27.5 WNW 15 20 1007.7 - 0.0 - - - - - - -
26/04:00pm 27.9 WNW 16 19 1007.8 - 0.0 - - - - - - -
26/03:30pm 28.1 WNW 15 18 1008.1 - 0.0 - - - - - - -
26/03:00pm 28.3 WNW 16 19 1008.3 - 0.0 - - - - - - -
26/02:30pm 29.1 WNW 16 20 1008.4 - 0.0 - - - - - - -
26/02:00pm 28.9 WNW 16 20 1008.7 - 0.0 - - - - - - -
26/01:30pm 28.8 NW 16 19 1008.9 - 0.0 - - - - - - -
26/01:00pm 28.9 NW 14 18 1009.1 - 0.0 - - - - - - -
26/12:30pm 29.1 NW 13 16 1009.2 - 0.0 - - - - - - -
26/12:00pm 29.7 NW 13 17 1009.6 - 0.0 - - - - - - -
26/11:30am 29.8 NW 12 17 1009.8 - 0.0 - - - - - - -
26/11:00am 29.1 NW 11 15 1009.9 - 0.0 - - - - - - -
26/10:30am 28.6 NW 10 14 1010.2 - 0.0 - - - - - - -
26/10:00am 28.4 NNW 9 13 1010.5 - 0.0 - - - - - - -
26/09:30am 28.8 NNW 6 10 1010.6 - 0.0 - - - - - - -
26/09:00am 26.8 NW 7 10 1010.8 - 0.0 - - - - - - -
26/08:30am 26.6 NW 6 8 1010.9 - 0.0 - - - - - - -
26/08:00am 26.3 SSW 2 4 1010.7 - 0.0 - - - - - - -
26/07:30am 25.6 SSW 5 6 1010.8 - 0.0 - - - - - - -
26/07:00am 24.3 WSW 5 7 1010.7 - 0.0 - - - - - - -
26/06:30am 23.3 WSW 4 6 1010.8 - 0.0 - - - - - - -
26/06:00am 22.7 SW 6 8 1010.5 - 0.0 - - - - - - -
26/05:30am 22.7 SSW 6 7 1010.6 - 0.0 - - - - - - -
26/05:00am 22.8 SSW 7 9 1010.2 - 0.0 - - - - - - -
26/04:30am 22.8 S 9 11 1010.0 - 0.0 - - - - - - -
26/04:00am 23.0 SSW 9 11 1009.2 - 0.0 - - - - - - -
26/03:30am 23.3 SSW 9 11 1008.9 - 0.0 - - - - - - -
26/03:00am 23.4 SW 9 11 1008.9 - 0.0 - - - - - - -
26/02:30am 23.6 SSW 8 11 1008.9 - 0.0 - - - - - - -
26/02:00am 23.4 SW 7 10 1009.0 - 0.0 - - - - - - -
26/01:30am 23.2 WSW 6 8 1009.1 - 0.0 - - - - - - -
26/01:00am 23.4 W 7 9 1008.8 - 0.0 - - - - - - -
26/12:30am 23.6 W 9 12 1008.9 - 0.0 - - - - - - -
26/12:00am 23.7 W 10 13 1009.0 - 0.0 - - - - - - -
 
Date/Time
WST
Temp

°C
Wind Pressure Rain
since 9am
mm
Weather Cloud Vis
km
Sea
Height
m
Swell
Dir
 
Speed
knots
Gust
knots
hPa Trend Height
m
Period
s
Dir
25/11:30pm 23.9 W 11 14 1009.2 - 0.0 - - - - - - -
25/11:00pm 24.0 W 11 15 1009.3 - 0.0 - - - - - - -
25/10:30pm 24.2 W 11 15 1009.4 - 0.0 - - - - - - -
25/10:00pm 24.4 W 14 17 1009.4 - 0.0 - - - - - - -
25/09:30pm 24.4 W 14 19 1009.1 - 0.0 - - - - - - -
25/09:00pm 24.6 W 15 19 1008.7 - 0.0 - - - - - - -
25/08:30pm 24.8 W 18 24 1008.6 - 0.0 - - - - - - -
25/08:00pm 24.9 W 15 21 1008.4 - 0.0 - - - - - - -
25/07:30pm 25.0 W 15 20 1008.3 - 0.0 - - - - - - -
25/07:00pm 25.2 W 14 17 1007.9 - 0.0 - - - - - - -
25/06:30pm 25.7 W 16 20 1007.6 - 0.0 - - - - - - -
25/06:00pm 26.2 W 17 22 1007.4 - 0.0 - - - - - - -
25/05:30pm 26.8 W 18 22 1007.2 - 0.0 - - - - - - -
25/05:00pm 28.1 W 16 20 1007.2 - 0.0 - - - - - - -
25/04:30pm 28.2 W 19 23 1007.2 - 0.0 - - - - - - -
25/04:00pm 28.6 WNW 20 25 1007.2 - 0.0 - - - - - - -
25/03:30pm 30.3 WNW 17 21 1007.2 - 0.0 - - - - - - -
25/03:00pm 31.3 WNW 17 21 1007.4 - 0.0 - - - - - - -
25/02:30pm 30.7 WNW 17 22 1007.8 - 0.0 - - - - - - -
25/02:00pm 31.1 WNW 16 19 1008.1 - 0.0 - - - - - - -
25/01:30pm 31.1 WNW 14 17 1008.5 - 0.0 - - - - - - -
25/01:00pm 31.2 WNW 13 16 1008.7 - 0.0 - - - - - - -
25/12:30pm 30.9 WNW 13 16 1009.1 - 0.0 - - - - - - -
25/12:00pm 30.7 WNW 13 16 1009.4 - 0.0 - - - - - - -
25/11:30am 31.2 WNW 12 14 1009.7 - 0.0 - - - - - - -
25/11:00am 30.9 NW 10 13 1010.3 - 0.0 - - - - - - -

Other Formats:

Comma delimited format used in spreadsheet applications
http://www.bom.gov.au/fwo/IDW60701/IDW60701.95305.axf

JavaScript Object Notation format (JSON) in row-major order
http://www.bom.gov.au/fwo/IDW60701/IDW60701.95305.json